createdAt,value
2019-03-10T00:00:39.259Z,71.08
2019-03-10T00:01:39.238Z,70.98
2019-03-10T00:02:39.286Z,71.08
2019-03-10T00:03:39.207Z,71.29
2019-03-10T00:04:39.195Z,72.22
2019-03-10T00:05:39.193Z,71.29
2019-03-10T00:06:39.202Z,71.19
2019-03-10T00:07:39.185Z,71.29
2019-03-10T00:08:39.241Z,71.12
2019-03-10T00:09:39.144Z,71.19
2019-03-10T00:10:39.151Z,71.19
2019-03-10T00:11:39.175Z,71.12
2019-03-10T00:12:39.111Z,71.33
2019-03-10T00:13:39.123Z,71.12
2019-03-10T00:14:39.095Z,71.63
2019-03-10T00:15:39.078Z,71.73
2019-03-10T00:16:39.087Z,71.84
2019-03-10T00:17:39.059Z,71.94
2019-03-10T00:18:39.069Z,71.53
2019-03-10T00:19:39.036Z,71.84
2019-03-10T00:20:39.031Z,71.94
2019-03-10T00:21:39.021Z,72.15
2019-03-10T00:22:39.046Z,72.56
2019-03-10T00:23:39.091Z,72.05
2019-03-10T00:24:38.989Z,72.05
2019-03-10T00:25:38.977Z,72.56
2019-03-10T00:26:38.961Z,71.84
2019-03-10T00:27:38.965Z,72.46
2019-03-10T00:28:39.014Z,72.67
2019-03-10T00:29:38.932Z,72.56
2019-03-10T00:30:38.934Z,72.25
2019-03-10T00:31:38.920Z,72.25
2019-03-10T00:32:38.921Z,72.67
2019-03-10T00:33:38.969Z,72.77
2019-03-10T00:34:38.889Z,72.67
2019-03-10T00:35:38.875Z,72.67
2019-03-10T00:36:38.867Z,72.15
2019-03-10T00:37:38.846Z,72.25
2019-03-10T00:38:38.859Z,72.05
2019-03-10T00:39:38.849Z,72.15
2019-03-10T00:40:38.834Z,72.05
2019-03-10T00:41:38.815Z,72.77
2019-03-10T00:42:38.809Z,72.88
2019-03-10T00:43:38.823Z,72.56
2019-03-10T00:44:38.772Z,72.67
2019-03-10T00:45:38.765Z,72.67
2019-03-10T00:46:38.754Z,72.46
2019-03-10T00:47:38.752Z,72.15
2019-03-10T00:48:38.767Z,72.56
2019-03-10T00:49:38.729Z,73.08
2019-03-10T00:50:38.720Z,73.08
2019-03-10T00:51:38.730Z,72.15
2019-03-10T00:52:38.710Z,72.77
2019-03-10T00:53:38.687Z,72.36
2019-03-10T00:54:38.702Z,72.77
2019-03-10T00:55:38.660Z,72.77
2019-03-10T00:56:38.645Z,72.88
2019-03-10T00:57:38.647Z,72.88
2019-03-10T00:58:38.668Z,73.50
2019-03-10T00:59:38.639Z,72.88
2019-03-10T01:00:38.629Z,73.29
2019-03-10T01:01:38.611Z,73.29
2019-03-10T01:02:38.585Z,73.29
2019-03-10T01:03:38.592Z,73.91
2019-03-10T01:04:38.591Z,73.39
2019-03-10T01:05:38.603Z,73.91
2019-03-10T01:06:38.539Z,73.08
2019-03-10T01:07:38.534Z,73.39
2019-03-10T01:08:38.601Z,73.50
2019-03-10T01:09:38.530Z,73.29
2019-03-10T01:10:38.504Z,74.02
2019-03-10T01:11:38.495Z,73.60
2019-03-10T01:12:38.481Z,74.32
2019-03-10T01:13:38.474Z,73.60
2019-03-10T01:14:38.532Z,73.71
2019-03-10T01:15:38.456Z,73.91
2019-03-10T01:16:38.447Z,74.36
2019-03-10T01:17:38.441Z,74.12
2019-03-10T01:18:38.447Z,74.15
2019-03-10T01:19:38.406Z,74.46
2019-03-10T01:20:38.447Z,74.26
2019-03-10T01:21:38.411Z,74.15
2019-03-10T01:22:38.382Z,74.46
2019-03-10T01:23:38.385Z,74.88
2019-03-10T01:24:38.353Z,74.67
2019-03-10T01:25:38.363Z,74.26
2019-03-10T01:26:38.358Z,74.15
2019-03-10T01:27:38.321Z,74.15
2019-03-10T01:28:38.315Z,74.26
2019-03-10T01:29:38.325Z,74.26
2019-03-10T01:30:38.874Z,74.26
2019-03-10T01:31:38.278Z,74.36
2019-03-10T01:32:38.292Z,74.26
2019-03-10T01:33:38.266Z,74.67
2019-03-10T01:34:38.257Z,74.88
2019-03-10T01:35:38.305Z,74.46
2019-03-10T01:36:38.225Z,74.15
2019-03-10T01:37:38.219Z,74.57
2019-03-10T01:38:38.204Z,74.57
2019-03-10T01:39:38.199Z,74.05
2019-03-10T01:40:38.240Z,74.36
2019-03-10T01:41:38.187Z,74.57
2019-03-10T01:42:38.167Z,74.57
2019-03-10T01:43:38.164Z,75.19
2019-03-10T01:44:38.146Z,75.29
2019-03-10T01:45:38.163Z,74.57
2019-03-10T01:46:38.142Z,74.26
2019-03-10T01:47:38.137Z,74.57
2019-03-10T01:48:38.104Z,74.98
2019-03-10T01:49:38.095Z,74.57
2019-03-10T01:50:38.111Z,73.84
2019-03-10T01:51:38.076Z,74.36
2019-03-10T01:52:38.063Z,74.53
2019-03-10T01:53:38.051Z,74.32
2019-03-10T01:54:38.136Z,74.63
2019-03-10T01:55:38.036Z,75.26
2019-03-10T01:56:38.080Z,74.32
2019-03-10T01:57:38.008Z,74.02
2019-03-10T01:58:38.000Z,74.32
2019-03-10T01:59:37.993Z,74.05
2019-03-10T02:00:37.975Z,74.57
2019-03-10T02:01:37.984Z,74.98
2019-03-10T02:02:37.959Z,74.84
2019-03-10T02:03:37.952Z,74.57
2019-03-10T02:04:37.953Z,74.57
2019-03-10T02:05:37.921Z,74.67
2019-03-10T02:06:37.949Z,74.57
2019-03-10T02:07:37.901Z,74.67
2019-03-10T02:08:37.894Z,74.77
2019-03-10T02:09:37.881Z,74.36
2019-03-10T02:10:37.872Z,74.57
2019-03-10T02:11:37.881Z,74.88
2019-03-10T02:12:37.856Z,74.46
2019-03-10T02:13:37.838Z,75.19
2019-03-10T02:14:37.834Z,74.67
2019-03-10T02:15:37.846Z,75.19
2019-03-10T02:16:37.822Z,75.09
2019-03-10T02:17:37.827Z,75.09
2019-03-10T02:18:37.798Z,74.77
2019-03-10T02:19:37.779Z,75.40
2019-03-10T02:20:37.805Z,74.88
2019-03-10T02:21:37.774Z,75.19
2019-03-10T02:22:37.779Z,74.98
2019-03-10T02:23:37.789Z,74.46
2019-03-10T02:24:37.732Z,74.77
2019-03-10T02:25:37.716Z,74.67
2019-03-10T02:26:37.708Z,74.98
2019-03-10T02:27:37.816Z,75.19
2019-03-10T02:28:37.721Z,74.57
2019-03-10T02:29:37.696Z,74.05
2019-03-10T02:30:37.743Z,74.57
2019-03-10T02:31:37.673Z,74.26
2019-03-10T02:32:37.682Z,74.57
2019-03-10T02:33:37.650Z,74.46
2019-03-10T02:34:37.621Z,75.09
2019-03-10T02:35:37.612Z,74.05
2019-03-10T02:36:37.620Z,74.98
2019-03-10T02:37:37.594Z,74.57
2019-03-10T02:38:37.601Z,74.36
2019-03-10T02:39:37.570Z,74.46
2019-03-10T02:40:37.561Z,74.57
2019-03-10T02:41:37.541Z,74.46
2019-03-10T02:42:37.541Z,75.19
2019-03-10T02:43:37.688Z,74.57
2019-03-10T02:44:37.509Z,75.09
2019-03-10T02:45:37.510Z,74.88
2019-03-10T02:46:37.494Z,74.98
2019-03-10T02:47:37.489Z,74.67
2019-03-10T02:48:37.518Z,74.88
2019-03-10T02:49:37.469Z,75.40
2019-03-10T02:50:37.451Z,75.40
2019-03-10T02:51:37.539Z,75.02
2019-03-10T02:52:37.431Z,75.40
2019-03-10T02:53:37.467Z,75.43
2019-03-10T02:54:37.439Z,75.95
2019-03-10T02:55:37.405Z,75.12
2019-03-10T02:56:37.410Z,75.84
2019-03-10T02:57:37.383Z,75.84
2019-03-10T02:58:37.383Z,75.12
2019-03-10T02:59:37.378Z,75.43
2019-03-10T03:00:37.346Z,75.19
2019-03-10T03:01:37.342Z,75.32
2019-03-10T03:02:37.388Z,75.02
2019-03-10T03:03:37.322Z,75.43
2019-03-10T03:04:37.336Z,75.12
2019-03-10T03:05:37.330Z,74.60
2019-03-10T03:06:37.285Z,74.71
2019-03-10T03:07:37.281Z,74.60
2019-03-10T03:08:37.261Z,75.02
2019-03-10T03:09:37.259Z,74.60
2019-03-10T03:10:37.281Z,75.09
2019-03-10T03:11:37.231Z,74.60
2019-03-10T03:12:37.320Z,74.71
2019-03-10T03:13:37.222Z,75.09
2019-03-10T03:14:37.202Z,75.09
2019-03-10T03:15:37.279Z,75.12
2019-03-10T03:16:37.183Z,75.40
2019-03-10T03:17:37.167Z,74.81
2019-03-10T03:18:37.165Z,75.02
2019-03-10T03:19:37.142Z,75.40
2019-03-10T03:20:37.166Z,75.12
2019-03-10T03:21:43.071Z,73.94
2019-03-10T03:22:38.119Z,74.57
2019-03-10T03:23:37.104Z,75.09
2019-03-10T03:24:37.116Z,74.57
2019-03-10T03:25:37.126Z,75.19
2019-03-10T03:26:37.076Z,74.46
2019-03-10T03:27:37.087Z,75.09
2019-03-10T03:28:37.064Z,75.29
2019-03-10T03:29:37.085Z,75.19
2019-03-10T03:30:37.056Z,74.46
2019-03-10T03:31:37.045Z,75.02
2019-03-10T03:32:37.083Z,75.29
2019-03-10T03:33:36.998Z,75.43
2019-03-10T03:34:36.998Z,75.19
2019-03-10T03:35:37.004Z,75.40
2019-03-10T03:36:37.003Z,75.40
2019-03-10T03:37:36.957Z,74.77
2019-03-10T03:38:36.996Z,75.40
2019-03-10T03:39:36.937Z,75.29
2019-03-10T03:40:36.936Z,75.19
2019-03-10T03:41:37.005Z,75.40
2019-03-10T03:42:36.920Z,75.40
2019-03-10T03:43:36.932Z,75.50
2019-03-10T03:44:36.887Z,75.29
2019-03-10T03:45:36.886Z,75.71
2019-03-10T03:46:36.905Z,75.92
2019-03-10T03:47:36.868Z,75.92
2019-03-10T03:48:36.845Z,76.12
2019-03-10T03:49:36.843Z,76.23
2019-03-10T03:50:36.834Z,76.32
2019-03-10T03:51:36.827Z,76.15
2019-03-10T03:52:36.797Z,76.32
2019-03-10T03:53:36.864Z,76.57
2019-03-10T03:54:36.777Z,76.64
2019-03-10T03:55:36.800Z,76.84
2019-03-10T03:56:36.778Z,76.84
2019-03-10T03:57:36.784Z,76.98
2019-03-10T03:58:36.788Z,76.95
2019-03-10T03:59:36.732Z,77.05
2019-03-10T04:00:36.715Z,76.95
2019-03-10T04:01:36.716Z,77.15
2019-03-10T04:02:36.695Z,77.15
2019-03-10T04:03:36.691Z,77.26
2019-03-10T04:04:36.676Z,77.15
2019-03-10T04:05:36.670Z,77.47
2019-03-10T04:06:36.743Z,77.26
2019-03-10T04:07:36.649Z,77.36
2019-03-10T04:08:36.629Z,77.36
2019-03-10T04:09:36.668Z,77.15
2019-03-10T04:10:36.623Z,77.26
2019-03-10T04:11:36.706Z,77.67
2019-03-10T04:12:36.591Z,77.26
2019-03-10T04:13:36.579Z,77.57
2019-03-10T04:14:36.608Z,77.67
2019-03-10T04:15:36.561Z,77.67
2019-03-10T04:16:36.588Z,77.67
2019-03-10T04:17:36.590Z,77.57
2019-03-10T04:18:36.543Z,77.67
2019-03-10T04:19:36.542Z,77.67
2019-03-10T04:20:36.548Z,77.74
2019-03-10T04:21:36.548Z,77.67
2019-03-10T04:22:36.567Z,78.09
2019-03-10T04:23:36.476Z,77.84
2019-03-10T04:24:36.462Z,77.84
2019-03-10T04:25:36.450Z,77.74
2019-03-10T04:26:36.554Z,78.19
2019-03-10T04:27:36.434Z,78.05
2019-03-10T04:28:36.427Z,78.26
2019-03-10T04:29:36.417Z,78.47
2019-03-10T04:30:36.404Z,78.19
2019-03-10T04:31:36.416Z,78.19
2019-03-10T04:32:36.394Z,78.26
2019-03-10T04:33:36.417Z,78.36
2019-03-10T04:34:36.371Z,78.30
2019-03-10T04:35:36.351Z,78.16
2019-03-10T04:36:36.408Z,78.16
2019-03-10T04:37:36.330Z,78.47
2019-03-10T04:38:36.348Z,78.16
2019-03-10T04:39:36.328Z,78.05
2019-03-10T04:40:36.305Z,78.67
2019-03-10T04:41:36.316Z,78.36
2019-03-10T04:42:36.272Z,78.36
2019-03-10T04:43:36.266Z,78.26
2019-03-10T04:44:36.481Z,78.67
2019-03-10T04:45:36.245Z,78.47
2019-03-10T04:46:36.237Z,78.57
2019-03-10T04:47:36.398Z,78.78
2019-03-10T04:48:36.211Z,78.16
2019-03-10T04:49:36.200Z,78.47
2019-03-10T04:50:36.194Z,78.16
2019-03-10T04:51:36.181Z,78.26
2019-03-10T04:52:36.190Z,78.47
2019-03-10T04:53:36.156Z,78.36
2019-03-10T04:54:36.150Z,78.88
2019-03-10T04:55:36.148Z,79.09
2019-03-10T04:56:36.134Z,78.88
2019-03-10T04:57:36.163Z,78.67
2019-03-10T04:58:36.103Z,78.67
2019-03-10T04:59:36.096Z,78.36
2019-03-10T05:00:36.097Z,78.88
2019-03-10T05:01:36.094Z,78.47
2019-03-10T05:02:36.070Z,78.57
2019-03-10T05:03:36.077Z,78.85
2019-03-10T05:04:36.044Z,78.95
2019-03-10T05:05:36.030Z,78.43
2019-03-10T05:06:44.414Z,78.74
2019-03-10T05:07:36.018Z,78.12
2019-03-10T05:08:36.050Z,78.53
2019-03-10T05:09:35.985Z,78.12
2019-03-10T05:10:35.982Z,78.64
2019-03-10T05:11:35.973Z,78.85
2019-03-10T05:12:35.962Z,78.02
2019-03-10T05:13:36.002Z,78.43
2019-03-10T05:14:35.988Z,78.74
2019-03-10T05:15:35.933Z,78.43
2019-03-10T05:16:35.927Z,78.74
2019-03-10T05:17:35.920Z,78.95
2019-03-10T05:18:35.918Z,78.95
2019-03-10T05:19:35.895Z,79.05
2019-03-10T05:20:35.918Z,78.64
2019-03-10T05:21:35.865Z,78.74
2019-03-10T05:22:35.856Z,78.85
2019-03-10T05:23:35.840Z,78.95
2019-03-10T05:24:35.858Z,78.95
2019-03-10T05:25:35.816Z,78.74
2019-03-10T05:26:35.829Z,78.53
2019-03-10T05:27:35.796Z,78.74
2019-03-10T05:28:35.805Z,78.95
2019-03-10T05:29:35.851Z,78.50
2019-03-10T05:30:35.767Z,78.81
2019-03-10T05:31:35.764Z,79.05
2019-03-10T05:32:35.772Z,79.05
2019-03-10T05:33:35.730Z,79.05
2019-03-10T05:34:35.766Z,78.74
2019-03-10T05:35:35.715Z,78.64
2019-03-10T05:36:35.727Z,79.36
2019-03-10T05:37:35.754Z,79.16
2019-03-10T05:38:35.698Z,79.47
2019-03-10T05:39:35.681Z,79.47
2019-03-10T05:40:35.678Z,79.67
2019-03-10T05:41:35.659Z,79.67
2019-03-10T05:42:35.712Z,79.67
2019-03-10T05:43:35.642Z,79.77
2019-03-10T05:44:35.645Z,79.36
2019-03-10T05:45:35.681Z,79.77
2019-03-10T05:46:35.595Z,79.47
2019-03-10T05:47:35.606Z,79.77
2019-03-10T05:48:35.580Z,79.05
2019-03-10T05:49:35.638Z,79.57
2019-03-10T05:50:35.591Z,79.67
2019-03-10T05:51:35.546Z,79.57
2019-03-10T05:52:35.563Z,79.16
2019-03-10T05:53:35.526Z,79.26
2019-03-10T05:54:35.524Z,79.36
2019-03-10T05:55:35.507Z,79.67
2019-03-10T05:56:35.518Z,79.36
2019-03-10T05:57:35.480Z,79.36
2019-03-10T05:58:35.574Z,79.57
2019-03-10T05:59:35.472Z,79.77
2019-03-10T06:00:42.681Z,79.26
2019-03-10T06:01:36.455Z,79.47
2019-03-10T06:02:35.439Z,79.77
2019-03-10T06:03:35.416Z,80.19
2019-03-10T06:04:35.411Z,79.67
2019-03-10T06:05:35.408Z,79.57
2019-03-10T06:06:35.418Z,79.36
2019-03-10T06:07:35.391Z,79.77
2019-03-10T06:08:35.369Z,79.67
2019-03-10T06:09:35.352Z,79.88
2019-03-10T06:10:35.372Z,79.67
2019-03-10T06:11:35.363Z,79.67
2019-03-10T06:12:35.330Z,79.98
2019-03-10T06:13:35.341Z,80.08
2019-03-10T06:14:35.300Z,79.26
2019-03-10T06:15:35.287Z,79.77
2019-03-10T06:16:35.345Z,79.77
2019-03-10T06:17:35.289Z,79.57
2019-03-10T06:18:35.270Z,79.57
2019-03-10T06:19:35.256Z,79.36
2019-03-10T06:20:35.279Z,79.57
2019-03-10T06:21:35.237Z,79.26
2019-03-10T06:22:35.301Z,79.77
2019-03-10T06:23:35.240Z,79.16
2019-03-10T06:24:35.235Z,79.26
2019-03-10T06:25:35.240Z,79.36
2019-03-10T06:26:35.222Z,79.67
2019-03-10T06:27:35.451Z,79.16
2019-03-10T06:28:35.176Z,79.57
2019-03-10T06:29:35.153Z,79.26
2019-03-10T06:30:35.135Z,79.47
2019-03-10T06:31:35.126Z,79.33
2019-03-10T06:32:35.137Z,78.60
2019-03-10T06:33:35.135Z,77.98
2019-03-10T06:34:35.099Z,78.19
2019-03-10T06:35:35.096Z,78.36
2019-03-10T06:36:35.075Z,77.94
2019-03-10T06:37:35.063Z,78.25
2019-03-10T06:38:35.067Z,77.64
2019-03-10T06:39:35.045Z,77.19
2019-03-10T06:40:35.029Z,76.87
2019-03-10T06:41:35.016Z,76.77
2019-03-10T06:42:35.017Z,76.56
2019-03-10T06:43:35.006Z,76.56
2019-03-10T06:44:35.031Z,76.43
2019-03-10T06:45:34.994Z,76.56
2019-03-10T06:46:34.963Z,75.91
2019-03-10T06:47:34.957Z,76.15
2019-03-10T06:48:34.961Z,76.01
2019-03-10T06:49:34.936Z,75.70
2019-03-10T06:50:34.919Z,76.01
2019-03-10T06:51:34.909Z,75.19
2019-03-10T06:52:34.910Z,75.49
2019-03-10T06:53:34.923Z,75.70
2019-03-10T06:54:34.879Z,74.88
2019-03-10T06:55:34.876Z,74.74
2019-03-10T06:56:34.877Z,74.33
2019-03-10T06:57:34.845Z,74.95
2019-03-10T06:58:34.875Z,74.53
2019-03-10T06:59:34.823Z,74.98
2019-03-10T07:01:35.893Z,74.22
2019-03-10T07:02:34.802Z,74.57
2019-03-10T07:03:34.782Z,75.05
2019-03-10T07:04:34.791Z,75.67
2019-03-10T07:05:34.789Z,75.26
2019-03-10T07:06:34.762Z,74.43
2019-03-10T07:07:34.779Z,74.84
2019-03-10T07:08:34.735Z,75.15
2019-03-10T07:09:34.798Z,74.43
2019-03-10T07:10:34.713Z,74.74
2019-03-10T07:11:34.693Z,75.15
2019-03-10T07:12:34.687Z,75.15
2019-03-10T07:13:34.678Z,74.63
2019-03-10T07:14:34.697Z,74.74
2019-03-10T07:15:34.655Z,74.84
2019-03-10T07:16:34.649Z,74.84
2019-03-10T07:17:34.675Z,74.74
2019-03-10T07:18:34.624Z,74.74
2019-03-10T07:19:34.653Z,74.74
2019-03-10T07:20:34.602Z,73.91
2019-03-10T07:21:34.603Z,74.95
2019-03-10T07:22:34.583Z,74.81
2019-03-10T07:23:34.568Z,74.19
2019-03-10T07:24:34.573Z,74.19
2019-03-10T07:25:34.557Z,73.88
2019-03-10T07:26:34.535Z,73.77
2019-03-10T07:27:34.529Z,74.08
2019-03-10T07:28:34.540Z,74.08
2019-03-10T07:29:34.521Z,73.57
2019-03-10T07:30:34.507Z,73.57
2019-03-10T07:31:34.533Z,73.77
2019-03-10T07:32:34.492Z,74.19
2019-03-10T07:33:34.496Z,74.08
2019-03-10T07:34:34.551Z,73.71
2019-03-10T07:35:34.451Z,74.19
2019-03-10T07:36:34.435Z,73.98
2019-03-10T07:37:34.424Z,73.36
2019-03-10T07:38:34.419Z,74.08
2019-03-10T07:39:34.431Z,73.57
2019-03-10T07:40:34.407Z,73.98
2019-03-10T07:41:34.556Z,73.26
2019-03-10T07:42:34.371Z,73.68
2019-03-10T07:43:34.351Z,73.36
2019-03-10T07:44:34.359Z,73.88
2019-03-10T07:45:34.356Z,73.77
2019-03-10T07:46:34.327Z,73.16
2019-03-10T07:47:34.312Z,72.95
2019-03-10T07:48:34.310Z,73.36
2019-03-10T07:49:34.292Z,73.43
2019-03-10T07:50:34.366Z,72.74
2019-03-10T07:51:34.267Z,73.36
2019-03-10T07:52:34.259Z,73.54
2019-03-10T07:53:34.250Z,73.12
2019-03-10T07:54:34.243Z,72.40
2019-03-10T07:55:34.286Z,72.27
2019-03-10T07:56:34.242Z,71.95
2019-03-10T07:57:34.205Z,72.06
2019-03-10T07:58:34.195Z,72.16
2019-03-10T07:59:34.211Z,71.75
2019-03-10T08:00:34.191Z,72.16
2019-03-10T08:01:34.169Z,72.16
2019-03-10T08:02:34.150Z,72.06
2019-03-10T08:03:34.139Z,72.30
2019-03-10T08:04:34.147Z,71.99
2019-03-10T08:05:34.137Z,72.09
2019-03-10T08:06:34.121Z,72.19
2019-03-10T08:07:34.110Z,72.19
2019-03-10T08:08:34.083Z,72.16
2019-03-10T08:09:34.115Z,72.16
2019-03-10T08:10:34.093Z,71.85
2019-03-10T08:11:34.058Z,71.23
2019-03-10T08:12:34.043Z,70.92
2019-03-10T08:13:34.079Z,71.51
2019-03-10T08:14:34.051Z,70.82
2019-03-10T08:15:34.056Z,70.89
2019-03-10T08:16:34.003Z,70.89
2019-03-10T08:17:33.989Z,70.58
2019-03-10T08:18:34.003Z,70.79
2019-03-10T08:19:33.976Z,71.10
2019-03-10T08:20:33.995Z,71.17
2019-03-10T08:21:33.950Z,70.45
2019-03-10T08:22:33.937Z,71.27
2019-03-10T08:23:33.925Z,70.65
2019-03-10T08:24:33.915Z,69.73
2019-03-10T08:25:33.905Z,69.62
2019-03-10T08:26:33.907Z,68.70
2019-03-10T08:27:33.885Z,68.39
2019-03-10T08:28:33.886Z,68.39
2019-03-10T08:29:33.863Z,69.52
2019-03-10T08:30:33.859Z,68.56
2019-03-10T08:31:33.863Z,68.56
2019-03-10T08:32:33.855Z,68.29
2019-03-10T08:33:33.819Z,68.66
2019-03-10T08:34:33.835Z,68.77
2019-03-10T08:35:33.797Z,68.35
2019-03-10T08:36:33.814Z,67.84
2019-03-10T08:37:33.777Z,68.02
2019-03-10T08:38:33.764Z,68.05
2019-03-10T08:39:33.755Z,68.56
2019-03-10T08:40:33.764Z,68.12
2019-03-10T08:41:33.766Z,67.81
2019-03-10T08:42:33.728Z,67.60
2019-03-10T08:43:33.712Z,67.50
2019-03-10T08:44:33.707Z,67.06
2019-03-10T08:45:33.688Z,67.16
2019-03-10T08:46:33.721Z,67.09
2019-03-10T08:47:33.669Z,66.99
2019-03-10T08:48:33.675Z,67.40
2019-03-10T08:49:44.380Z,67.09
2019-03-10T08:50:34.638Z,67.40
2019-03-10T08:51:33.656Z,67.30
2019-03-10T08:52:33.619Z,67.09
2019-03-10T08:53:33.617Z,66.78
2019-03-10T08:54:33.598Z,66.99
2019-03-10T08:55:33.584Z,67.06
2019-03-10T08:56:33.585Z,65.92
2019-03-10T08:57:33.575Z,66.24
2019-03-10T08:58:33.557Z,66.64
2019-03-10T08:59:33.571Z,66.03
2019-03-10T09:00:33.531Z,65.72
2019-03-10T09:01:33.549Z,64.90
2019-03-10T09:02:33.589Z,66.24
2019-03-10T09:03:33.495Z,65.41
2019-03-10T09:04:33.497Z,65.48
2019-03-10T09:05:33.509Z,66.31
2019-03-10T09:06:33.511Z,65.38
2019-03-10T09:07:33.492Z,65.28
2019-03-10T09:08:33.441Z,65.59
2019-03-10T09:09:33.495Z,65.08
2019-03-10T09:10:33.424Z,65.08
2019-03-10T09:11:33.469Z,65.52
2019-03-10T09:12:33.461Z,64.76
2019-03-10T09:13:33.420Z,65.11
2019-03-10T09:14:33.381Z,65.31
2019-03-10T09:15:33.377Z,65.38
2019-03-10T09:16:33.477Z,64.66
2019-03-10T09:17:33.352Z,64.56
2019-03-10T09:18:33.416Z,64.56
2019-03-10T09:19:33.337Z,64.97
2019-03-10T09:20:33.322Z,64.66
2019-03-10T09:21:33.343Z,63.81
2019-03-10T09:22:33.323Z,63.29
2019-03-10T09:23:33.327Z,63.91
2019-03-10T09:24:33.279Z,64.01
2019-03-10T09:25:33.280Z,62.68
2019-03-10T09:26:33.259Z,62.88
2019-03-10T09:27:33.284Z,63.40
2019-03-10T09:28:33.255Z,62.88
2019-03-10T09:29:33.225Z,62.96
2019-03-10T09:30:33.369Z,62.06
2019-03-10T09:31:33.199Z,62.06
2019-03-10T09:32:33.191Z,61.96
2019-03-10T09:33:33.203Z,60.31
2019-03-10T09:34:33.165Z,60.11
2019-03-10T09:35:33.161Z,60.63
2019-03-10T09:36:33.179Z,61.76
2019-03-10T09:37:33.152Z,61.35
2019-03-10T09:38:33.131Z,61.35
2019-03-10T09:39:33.142Z,62.16
2019-03-10T09:40:33.110Z,61.65
2019-03-10T09:41:33.098Z,62.06
2019-03-10T09:42:33.971Z,61.32
2019-03-10T09:43:33.086Z,61.52
2019-03-10T09:44:33.100Z,61.52
2019-03-10T09:45:33.064Z,61.52
2019-03-10T09:46:33.100Z,61.52
2019-03-10T09:47:33.049Z,62.24
2019-03-10T09:48:33.027Z,61.42
2019-03-10T09:49:33.032Z,61.93
2019-03-10T09:50:33.058Z,61.93
2019-03-10T09:51:33.001Z,61.93
2019-03-10T09:52:33.028Z,62.24
2019-03-10T09:53:32.964Z,61.60
2019-03-10T09:54:33.020Z,61.29
2019-03-10T09:55:32.975Z,62.01
2019-03-10T09:56:32.976Z,61.39
2019-03-10T09:57:32.983Z,61.36
2019-03-10T09:58:32.915Z,61.49
2019-03-10T09:59:32.954Z,61.29
2019-03-10T10:00:32.896Z,61.39
2019-03-10T10:01:32.902Z,61.60
2019-03-10T10:02:32.918Z,62.01
2019-03-10T10:03:32.855Z,61.90
2019-03-10T10:04:32.855Z,61.49
2019-03-10T10:05:32.869Z,61.80
2019-03-10T10:07:33.934Z,61.60
2019-03-10T10:08:32.840Z,61.90
2019-03-10T10:09:32.795Z,62.21
2019-03-10T10:10:32.813Z,61.29
2019-03-10T10:11:32.769Z,61.90
2019-03-10T10:12:32.762Z,61.21
2019-03-10T10:13:32.758Z,61.39
2019-03-10T10:14:32.738Z,61.90
2019-03-10T10:15:32.764Z,61.90
2019-03-10T10:16:32.714Z,61.90
2019-03-10T10:17:32.707Z,61.29
2019-03-10T10:18:32.704Z,62.01
2019-03-10T10:19:32.710Z,61.80
2019-03-10T10:20:32.688Z,62.31
2019-03-10T10:21:32.708Z,61.29
2019-03-10T10:22:32.663Z,61.46
2019-03-10T10:23:32.656Z,61.36
2019-03-10T10:24:32.639Z,61.67
2019-03-10T10:25:32.731Z,61.67
2019-03-10T10:26:32.737Z,61.98
2019-03-10T10:27:32.680Z,61.46
2019-03-10T10:28:32.616Z,62.11
2019-03-10T10:29:32.616Z,63.44
2019-03-10T10:30:32.572Z,63.31
2019-03-10T10:31:32.627Z,62.49
2019-03-10T10:32:32.549Z,61.87
2019-03-10T10:33:32.530Z,61.77
2019-03-10T10:34:32.523Z,61.77
2019-03-10T10:35:32.516Z,61.36
2019-03-10T10:36:32.511Z,61.16
2019-03-10T10:37:32.532Z,61.80
2019-03-10T10:38:32.554Z,61.72
2019-03-10T10:39:32.476Z,62.75
2019-03-10T10:40:32.478Z,63.37
2019-03-10T10:41:32.952Z,63.47
2019-03-10T10:42:32.458Z,63.27
2019-03-10T10:43:32.492Z,65.53
2019-03-10T10:44:32.521Z,64.29
2019-03-10T10:45:32.413Z,63.98
2019-03-10T10:46:32.390Z,63.57
2019-03-10T10:47:32.396Z,63.98
2019-03-10T10:48:32.387Z,64.29
2019-03-10T10:49:32.370Z,64.40
2019-03-10T10:50:32.360Z,63.89
2019-03-10T10:51:32.361Z,64.81
2019-03-10T10:52:32.360Z,63.68
2019-03-10T10:53:32.349Z,64.91
2019-03-10T10:54:32.355Z,63.78
2019-03-10T10:55:32.340Z,63.57
2019-03-10T10:56:32.288Z,63.65
2019-03-10T10:57:32.322Z,64.91
2019-03-10T10:58:32.298Z,65.05
2019-03-10T10:59:32.260Z,65.66
2019-03-10T11:00:32.267Z,66.28
2019-03-10T11:01:32.238Z,65.77
2019-03-10T11:02:32.228Z,66.17
2019-03-10T11:03:32.504Z,65.86
2019-03-10T11:04:32.206Z,66.07
2019-03-10T11:05:32.198Z,66.51
2019-03-10T11:06:32.178Z,66.89
2019-03-10T11:07:32.317Z,67.85
2019-03-10T11:08:32.182Z,67.85
2019-03-10T11:09:32.186Z,68.57
2019-03-10T11:10:32.141Z,68.37
2019-03-10T11:11:32.158Z,69.18
2019-03-10T11:12:32.116Z,70.32
2019-03-10T11:13:32.168Z,69.53
2019-03-10T11:14:32.112Z,70.25
2019-03-10T11:16:33.306Z,70.97
2019-03-10T11:17:53.077Z,71.66
2019-03-10T11:18:32.088Z,71.55
2019-03-10T11:19:32.055Z,72.06
2019-03-10T11:20:32.052Z,71.86
2019-03-10T11:21:32.033Z,71.66
2019-03-10T11:22:32.023Z,72.58
2019-03-10T11:23:32.034Z,71.55
2019-03-10T11:24:32.032Z,71.86
2019-03-10T11:25:32.048Z,71.58
2019-03-10T11:26:31.972Z,71.69
2019-03-10T11:27:31.974Z,72.00
2019-03-10T11:28:31.971Z,72.30
2019-03-10T11:29:31.970Z,72.00
2019-03-10T11:30:31.922Z,73.09
2019-03-10T11:31:31.918Z,72.68
2019-03-10T11:32:31.934Z,71.34
2019-03-10T11:33:31.927Z,69.90
2019-03-10T11:34:32.116Z,68.98
2019-03-10T11:35:31.924Z,68.16
2019-03-10T11:36:31.876Z,68.16
2019-03-10T11:37:31.854Z,67.95
2019-03-10T11:38:31.977Z,67.85
2019-03-10T11:39:31.868Z,68.26
2019-03-10T11:40:31.858Z,68.37
2019-03-10T11:41:34.120Z,68.05
2019-03-10T11:42:31.798Z,67.44
2019-03-10T11:43:31.821Z,68.16
2019-03-10T11:44:31.779Z,67.03
2019-03-10T11:45:31.786Z,66.79
2019-03-10T11:46:31.767Z,65.77
2019-03-10T11:47:31.778Z,65.86
2019-03-10T11:48:31.812Z,65.35
2019-03-10T11:49:31.728Z,64.01
2019-03-10T11:50:31.726Z,64.12
2019-03-10T11:51:31.709Z,64.73
2019-03-10T11:52:31.712Z,65.45
2019-03-10T11:53:31.686Z,64.73
2019-03-10T11:54:31.735Z,64.43
2019-03-10T11:55:31.673Z,63.32
2019-03-10T11:56:31.752Z,64.53
2019-03-10T11:57:31.655Z,64.46
2019-03-10T11:58:31.648Z,64.04
2019-03-10T11:59:31.637Z,65.52
2019-03-10T12:00:31.621Z,64.48
2019-03-10T12:01:31.616Z,65.75
2019-03-10T12:02:31.587Z,65.75
2019-03-10T12:03:31.588Z,66.19
2019-03-10T12:04:31.644Z,66.58
2019-03-10T12:05:31.634Z,65.89
2019-03-10T12:06:31.579Z,66.61
2019-03-10T12:07:31.532Z,67.60
2019-03-10T12:08:31.539Z,67.53
2019-03-10T12:09:31.542Z,68.05
2019-03-10T12:10:31.565Z,68.66
2019-03-10T12:11:31.600Z,68.02
2019-03-10T12:12:31.496Z,67.94
2019-03-10T12:13:31.513Z,67.74
2019-03-10T12:14:31.482Z,68.66
2019-03-10T12:15:31.464Z,69.66
2019-03-10T12:16:31.489Z,68.43
2019-03-10T12:17:31.428Z,68.05
2019-03-10T12:18:31.438Z,68.66
2019-03-10T12:19:31.475Z,68.35
2019-03-10T12:20:31.425Z,69.18
2019-03-10T12:21:31.382Z,69.49
2019-03-10T12:22:31.389Z,69.79
2019-03-10T12:23:31.370Z,70.72
2019-03-10T12:24:31.354Z,70.72
2019-03-10T12:25:31.369Z,69.93
2019-03-10T12:26:31.343Z,70.86
2019-03-10T12:27:31.321Z,71.99
2019-03-10T12:28:31.352Z,71.48
2019-03-10T12:29:31.297Z,71.24
2019-03-10T12:30:31.315Z,70.24
2019-03-10T12:31:31.289Z,70.34
2019-03-10T12:32:31.278Z,71.69
2019-03-10T12:33:31.274Z,72.20
2019-03-10T12:34:31.247Z,71.99
2019-03-10T12:35:34.614Z,72.75
2019-03-10T12:36:31.253Z,73.57
2019-03-10T12:37:31.220Z,73.98
2019-03-10T12:38:31.202Z,73.54
2019-03-10T12:39:31.202Z,74.50
2019-03-10T12:40:31.779Z,73.68
2019-03-10T12:41:31.465Z,72.81
2019-03-10T12:42:31.436Z,73.88
2019-03-10T12:43:31.665Z,73.26
2019-03-10T12:47:04.590Z,73.57
2019-03-10T12:48:06.519Z,73.57
2019-03-10T12:49:04.507Z,73.88
2019-03-10T12:50:04.663Z,74.19
2019-03-10T12:51:06.398Z,74.08
2019-03-10T12:52:04.525Z,74.80
2019-03-10T12:53:04.493Z,74.80
2019-03-10T12:54:04.461Z,75.12
2019-03-10T12:55:04.469Z,75.63
2019-03-10T12:56:04.427Z,75.94
2019-03-10T12:57:04.437Z,75.01
2019-03-10T12:58:04.429Z,75.32